sensor_id;sensor_type;location;lat;lon;timestamp;P1;durP1;ratioP1;P2;durP2;ratioP2
39276;SDS011;63149;48.086;-1.606;2023-02-28T06:02:34;24.52;;;13.30;;
39276;SDS011;63149;48.086;-1.606;2023-02-28T06:05:01;20.17;;;12.23;;
39276;SDS011;63149;48.086;-1.606;2023-02-28T06:07:28;26.85;;;13.70;;
39276;SDS011;63149;48.086;-1.606;2023-02-28T06:09:55;25.58;;;13.82;;
39276;SDS011;63149;48.086;-1.606;2023-02-28T06:12:22;21.75;;;13.13;;
39276;SDS011;63149;48.086;-1.606;2023-02-28T06:14:49;23.63;;;13.68;;
39276;SDS011;63149;48.086;-1.606;2023-02-28T06:17:16;35.35;;;15.70;;
39276;SDS011;63149;48.086;-1.606;2023-02-28T06:19:44;25.30;;;13.60;;
39276;SDS011;63149;48.086;-1.606;2023-02-28T06:22:13;24.95;;;13.93;;
39276;SDS011;63149;48.086;-1.606;2023-02-28T06:24:40;25.65;;;13.80;;
39276;SDS011;63149;48.086;-1.606;2023-02-28T06:27:07;25.27;;;15.23;;
39276;SDS011;63149;48.086;-1.606;2023-02-28T06:29:34;22.35;;;14.00;;
39276;SDS011;63149;48.086;-1.606;2023-02-28T06:32:04;24.38;;;13.38;;
39276;SDS011;63149;48.086;-1.606;2023-02-28T06:34:32;26.83;;;14.15;;
39276;SDS011;63149;48.086;-1.606;2023-02-28T06:37:01;27.98;;;14.30;;
39276;SDS011;63149;48.086;-1.606;2023-02-28T06:39:28;24.30;;;13.95;;
39276;SDS011;63149;48.086;-1.606;2023-02-28T06:41:55;26.17;;;14.00;;
39276;SDS011;63149;48.086;-1.606;2023-02-28T06:44:22;25.92;;;13.85;;
39276;SDS011;63149;48.086;-1.606;2023-02-28T06:46:49;27.15;;;14.40;;
39276;SDS011;63149;48.086;-1.606;2023-02-28T06:49:17;27.73;;;14.55;;
39276;SDS011;63149;48.086;-1.606;2023-02-28T06:51:45;32.22;;;15.38;;
39276;SDS011;63149;48.086;-1.606;2023-02-28T06:54:13;26.63;;;14.70;;
39276;SDS011;63149;48.086;-1.606;2023-02-28T06:56:40;25.30;;;14.05;;
39276;SDS011;63149;48.086;-1.606;2023-02-28T06:59:07;21.92;;;13.55;;
39276;SDS011;63149;48.086;-1.606;2023-02-28T07:01:34;29.45;;;15.20;;
39276;SDS011;63149;48.086;-1.606;2023-02-28T07:04:01;29.67;;;15.07;;
39276;SDS011;63149;48.086;-1.606;2023-02-28T07:06:28;27.90;;;15.35;;
39276;SDS011;63149;48.086;-1.606;2023-02-28T07:08:55;28.83;;;14.52;;
39276;SDS011;63149;48.086;-1.606;2023-02-28T07:11:24;28.70;;;14.43;;
39276;SDS011;63149;48.086;-1.606;2023-02-28T07:13:53;27.67;;;15.05;;
39276;SDS011;63149;48.086;-1.606;2023-02-28T07:16:20;28.90;;;13.80;;
39276;SDS011;63149;48.086;-1.606;2023-02-28T07:18:47;31.52;;;16.60;;
39276;SDS011;63149;48.086;-1.606;2023-02-28T07:21:15;26.67;;;15.00;;
39276;SDS011;63149;48.086;-1.606;2023-02-28T07:23:42;35.03;;;16.58;;
39276;SDS011;63149;48.086;-1.606;2023-02-28T07:26:10;28.58;;;16.15;;
39276;SDS011;63149;48.086;-1.606;2023-02-28T07:28:41;26.92;;;15.68;;
39276;SDS011;63149;48.086;-1.606;2023-02-28T07:31:09;30.63;;;15.45;;
39276;SDS011;63149;48.086;-1.606;2023-02-28T07:33:38;30.10;;;16.58;;
39276;SDS011;63149;48.086;-1.606;2023-02-28T07:36:06;30.90;;;16.23;;
39276;SDS011;63149;48.086;-1.606;2023-02-28T07:38:39;29.40;;;17.05;;
39276;SDS011;63149;48.086;-1.606;2023-02-28T07:41:05;30.88;;;17.38;;
39276;SDS011;63149;48.086;-1.606;2023-02-28T07:43:33;33.08;;;17.35;;
39276;SDS011;63149;48.086;-1.606;2023-02-28T07:46:03;27.80;;;15.27;;
39276;SDS011;63149;48.086;-1.606;2023-02-28T07:48:30;28.05;;;15.90;;
39276;SDS011;63149;48.086;-1.606;2023-02-28T07:50:58;26.88;;;15.75;;
39276;SDS011;63149;48.086;-1.606;2023-02-28T07:53:25;28.25;;;16.05;;
39276;SDS011;63149;48.086;-1.606;2023-02-28T07:55:54;35.15;;;19.25;;
39276;SDS011;63149;48.086;-1.606;2023-02-28T07:58:22;33.53;;;17.17;;
39276;SDS011;63149;48.086;-1.606;2023-02-28T08:00:49;28.70;;;16.63;;
39276;SDS011;63149;48.086;-1.606;2023-02-28T08:03:18;35.40;;;17.48;;
39276;SDS011;63149;48.086;-1.606;2023-02-28T08:05:47;28.73;;;16.58;;
39276;SDS011;63149;48.086;-1.606;2023-02-28T08:08:14;29.55;;;15.55;;
39276;SDS011;63149;48.086;-1.606;2023-02-28T08:10:41;31.38;;;17.48;;
39276;SDS011;63149;48.086;-1.606;2023-02-28T08:13:09;31.48;;;16.88;;
39276;SDS011;63149;48.086;-1.606;2023-02-28T08:15:36;29.92;;;17.52;;
39276;SDS011;63149;48.086;-1.606;2023-02-28T08:18:03;32.70;;;17.50;;
39276;SDS011;63149;48.086;-1.606;2023-02-28T08:20:31;32.50;;;17.92;;
39276;SDS011;63149;48.086;-1.606;2023-02-28T08:22:58;36.50;;;17.85;;
39276;SDS011;63149;48.086;-1.606;2023-02-28T08:25:25;28.80;;;16.45;;
39276;SDS011;63149;48.086;-1.606;2023-02-28T08:27:52;30.70;;;17.73;;
39276;SDS011;63149;48.086;-1.606;2023-02-28T08:30:19;29.20;;;16.67;;
39276;SDS011;63149;48.086;-1.606;2023-02-28T08:32:46;29.73;;;17.65;;
39276;SDS011;63149;48.086;-1.606;2023-02-28T08:35:13;32.30;;;18.15;;
39276;SDS011;63149;48.086;-1.606;2023-02-28T08:37:41;26.73;;;16.00;;
39276;SDS011;63149;48.086;-1.606;2023-02-28T08:40:08;30.52;;;17.25;;
39276;SDS011;63149;48.086;-1.606;2023-02-28T08:42:38;34.72;;;18.50;;
39276;SDS011;63149;48.086;-1.606;2023-02-28T08:45:05;32.20;;;17.55;;
39276;SDS011;63149;48.086;-1.606;2023-02-28T08:47:33;31.75;;;17.98;;
39276;SDS011;63149;48.086;-1.606;2023-02-28T08:50:00;28.98;;;17.25;;
39276;SDS011;63149;48.086;-1.606;2023-02-28T08:52:27;31.77;;;18.13;;
39276;SDS011;63149;48.086;-1.606;2023-02-28T08:54:55;30.00;;;17.33;;
39276;SDS011;63149;48.086;-1.606;2023-02-28T08:57:22;32.08;;;16.90;;
39276;SDS011;63149;48.086;-1.606;2023-02-28T08:59:51;35.58;;;17.35;;
39276;SDS011;63149;48.086;-1.606;2023-02-28T09:02:18;30.38;;;16.92;;
39276;SDS011;63149;48.086;-1.606;2023-02-28T09:04:45;30.25;;;17.02;;
39276;SDS011;63149;48.086;-1.606;2023-02-28T09:07:12;30.05;;;18.13;;
39276;SDS011;63149;48.086;-1.606;2023-02-28T09:09:39;29.52;;;15.95;;
39276;SDS011;63149;48.086;-1.606;2023-02-28T09:12:20;28.00;;;16.63;;
39276;SDS011;63149;48.086;-1.606;2023-02-28T09:14:47;32.22;;;16.92;;
39276;SDS011;63149;48.086;-1.606;2023-02-28T09:17:14;29.33;;;17.00;;
39276;SDS011;63149;48.086;-1.606;2023-02-28T09:19:42;24.65;;;15.27;;
39276;SDS011;63149;48.086;-1.606;2023-02-28T09:22:09;25.77;;;14.70;;
39276;SDS011;63149;48.086;-1.606;2023-02-28T09:24:36;26.77;;;15.48;;
39276;SDS011;63149;48.086;-1.606;2023-02-28T09:27:04;26.90;;;14.98;;
39276;SDS011;63149;48.086;-1.606;2023-02-28T09:29:33;24.58;;;13.82;;
39276;SDS011;63149;48.086;-1.606;2023-02-28T09:32:01;23.80;;;14.70;;
39276;SDS011;63149;48.086;-1.606;2023-02-28T09:34:30;24.45;;;14.15;;
39276;SDS011;63149;48.086;-1.606;2023-02-28T09:36:57;22.80;;;13.52;;
39276;SDS011;63149;48.086;-1.606;2023-02-28T09:39:24;19.63;;;12.43;;
39276;SDS011;63149;48.086;-1.606;2023-02-28T09:41:54;21.65;;;13.10;;
39276;SDS011;63149;48.086;-1.606;2023-02-28T09:44:24;15.57;;;10.73;;
39276;SDS011;63149;48.086;-1.606;2023-02-28T09:46:58;18.10;;;10.80;;
39276;SDS011;63149;48.086;-1.606;2023-02-28T09:49:33;17.90;;;11.18;;
39276;SDS011;63149;48.086;-1.606;2023-02-28T09:52:06;17.27;;;10.80;;
39276;SDS011;63149;48.086;-1.606;2023-02-28T09:57:05;16.95;;;10.07;;
39276;SDS011;63149;48.086;-1.606;2023-02-28T09:59:43;15.90;;;10.25;;
39276;SDS011;63149;48.086;-1.606;2023-02-28T10:02:46;13.40;;;8.82;;
39276;SDS011;63149;48.086;-1.606;2023-02-28T10:05:31;11.43;;;7.18;;
39276;SDS011;63149;48.086;-1.606;2023-02-28T10:08:07;16.23;;;8.00;;
39276;SDS011;63149;48.086;-1.606;2023-02-28T10:10:40;10.43;;;6.60;;
39276;SDS011;63149;48.086;-1.606;2023-02-28T10:13:13;10.18;;;6.93;;
39276;SDS011;63149;48.086;-1.606;2023-02-28T10:15:45;7.00;;;5.50;;
39276;SDS011;63149;48.086;-1.606;2023-02-28T10:18:19;8.07;;;5.50;;
39276;SDS011;63149;48.086;-1.606;2023-02-28T10:20:50;8.35;;;5.55;;
39276;SDS011;63149;48.086;-1.606;2023-02-28T10:23:20;8.75;;;6.18;;
39276;SDS011;63149;48.086;-1.606;2023-02-28T10:25:50;12.67;;;6.37;;
39276;SDS011;63149;48.086;-1.606;2023-02-28T10:28:21;9.60;;;6.40;;
39276;SDS011;63149;48.086;-1.606;2023-02-28T10:30:51;9.27;;;6.97;;
39276;SDS011;63149;48.086;-1.606;2023-02-28T10:33:21;9.52;;;6.28;;
39276;SDS011;63149;48.086;-1.606;2023-02-28T10:35:50;10.65;;;6.28;;
39276;SDS011;63149;48.086;-1.606;2023-02-28T10:38:19;10.52;;;6.18;;
39276;SDS011;63149;48.086;-1.606;2023-02-28T10:40:47;8.18;;;5.38;;
39276;SDS011;63149;48.086;-1.606;2023-02-28T10:43:19;8.15;;;5.18;;
39276;SDS011;63149;48.086;-1.606;2023-02-28T10:45:56;6.15;;;5.13;;
39276;SDS011;63149;48.086;-1.606;2023-02-28T10:48:37;7.35;;;4.82;;
39276;SDS011;63149;48.086;-1.606;2023-02-28T10:51:08;7.05;;;4.55;;
39276;SDS011;63149;48.086;-1.606;2023-02-28T10:53:47;6.97;;;4.30;;
39276;SDS011;63149;48.086;-1.606;2023-02-28T10:56:16;11.77;;;4.82;;
39276;SDS011;63149;48.086;-1.606;2023-02-28T11:01:18;6.70;;;4.32;;
39276;SDS011;63149;48.086;-1.606;2023-02-28T11:03:48;8.77;;;4.32;;
39276;SDS011;63149;48.086;-1.606;2023-02-28T11:06:17;6.13;;;4.07;;
39276;SDS011;63149;48.086;-1.606;2023-02-28T11:08:48;5.90;;;3.70;;
39276;SDS011;63149;48.086;-1.606;2023-02-28T11:11:17;5.40;;;3.67;;
39276;SDS011;63149;48.086;-1.606;2023-02-28T11:13:47;6.95;;;3.92;;
39276;SDS011;63149;48.086;-1.606;2023-02-28T11:16:18;7.53;;;4.25;;
39276;SDS011;63149;48.086;-1.606;2023-02-28T11:18:49;7.45;;;4.20;;
39276;SDS011;63149;48.086;-1.606;2023-02-28T11:23:50;7.40;;;4.30;;
39276;SDS011;63149;48.086;-1.606;2023-02-28T11:26:40;10.07;;;3.88;;
39276;SDS011;63149;48.086;-1.606;2023-02-28T11:29:12;6.53;;;3.60;;
39276;SDS011;63149;48.086;-1.606;2023-02-28T11:31:59;5.20;;;3.58;;
39276;SDS011;63149;48.086;-1.606;2023-02-28T11:34:30;6.43;;;3.75;;
39276;SDS011;63149;48.086;-1.606;2023-02-28T11:36:59;4.28;;;3.63;;
39276;SDS011;63149;48.086;-1.606;2023-02-28T11:42:03;8.05;;;4.28;;
39276;SDS011;63149;48.086;-1.606;2023-02-28T11:44:43;6.65;;;4.25;;
39276;SDS011;63149;48.086;-1.606;2023-02-28T11:47:25;5.22;;;3.80;;
39276;SDS011;63149;48.086;-1.606;2023-02-28T11:50:04;5.18;;;3.80;;
39276;SDS011;63149;48.086;-1.606;2023-02-28T11:52:42;5.75;;;4.25;;
39276;SDS011;63149;48.086;-1.606;2023-02-28T11:55:16;6.32;;;4.10;;
39276;SDS011;63149;48.086;-1.606;2023-02-28T11:57:49;9.77;;;4.80;;
39276;SDS011;63149;48.086;-1.606;2023-02-28T12:00:38;6.97;;;4.40;;
39276;SDS011;63149;48.086;-1.606;2023-02-28T12:03:28;6.88;;;4.20;;
39276;SDS011;63149;48.086;-1.606;2023-02-28T12:06:08;6.72;;;4.38;;
39276;SDS011;63149;48.086;-1.606;2023-02-28T12:08:47;3.70;;;3.30;;
39276;SDS011;63149;48.086;-1.606;2023-02-28T12:11:24;4.70;;;3.97;;
39276;SDS011;63149;48.086;-1.606;2023-02-28T12:14:17;5.28;;;3.90;;
39276;SDS011;63149;48.086;-1.606;2023-02-28T12:17:04;6.38;;;3.83;;
39276;SDS011;63149;48.086;-1.606;2023-02-28T12:19:42;7.13;;;4.28;;
39276;SDS011;63149;48.086;-1.606;2023-02-28T12:22:20;4.72;;;4.07;;
39276;SDS011;63149;48.086;-1.606;2023-02-28T12:24:58;6.25;;;3.50;;
39276;SDS011;63149;48.086;-1.606;2023-02-28T12:27:44;4.85;;;4.05;;
39276;SDS011;63149;48.086;-1.606;2023-02-28T12:30:15;6.40;;;4.32;;
39276;SDS011;63149;48.086;-1.606;2023-02-28T12:32:45;6.97;;;4.15;;
39276;SDS011;63149;48.086;-1.606;2023-02-28T12:35:18;6.00;;;4.35;;
39276;SDS011;63149;48.086;-1.606;2023-02-28T12:37:52;5.10;;;3.63;;
39276;SDS011;63149;48.086;-1.606;2023-02-28T12:40:25;5.47;;;4.10;;
39276;SDS011;63149;48.086;-1.606;2023-02-28T12:42:56;5.40;;;4.20;;
39276;SDS011;63149;48.086;-1.606;2023-02-28T12:45:26;5.50;;;3.75;;
39276;SDS011;63149;48.086;-1.606;2023-02-28T12:48:04;4.50;;;3.58;;
39276;SDS011;63149;48.086;-1.606;2023-02-28T12:50:35;5.57;;;3.75;;
39276;SDS011;63149;48.086;-1.606;2023-02-28T12:53:05;4.88;;;3.50;;
39276;SDS011;63149;48.086;-1.606;2023-02-28T12:55:38;6.15;;;3.83;;
39276;SDS011;63149;48.086;-1.606;2023-02-28T12:58:13;7.75;;;3.60;;
39276;SDS011;63149;48.086;-1.606;2023-02-28T13:00:48;5.60;;;3.90;;
39276;SDS011;63149;48.086;-1.606;2023-02-28T13:03:42;5.82;;;3.17;;
39276;SDS011;63149;48.086;-1.606;2023-02-28T13:06:24;5.47;;;3.78;;
39276;SDS011;63149;48.086;-1.606;2023-02-28T13:09:06;6.18;;;3.33;;
39276;SDS011;63149;48.086;-1.606;2023-02-28T13:11:41;5.32;;;3.53;;
39276;SDS011;63149;48.086;-1.606;2023-02-28T13:14:19;4.10;;;3.22;;
39276;SDS011;63149;48.086;-1.606;2023-02-28T13:16:55;7.32;;;3.40;;
39276;SDS011;63149;48.086;-1.606;2023-02-28T13:19:26;3.92;;;3.10;;
39276;SDS011;63149;48.086;-1.606;2023-02-28T13:21:55;4.45;;;3.38;;
39276;SDS011;63149;48.086;-1.606;2023-02-28T13:24:38;6.07;;;3.55;;
39276;SDS011;63149;48.086;-1.606;2023-02-28T13:27:20;4.57;;;3.47;;
39276;SDS011;63149;48.086;-1.606;2023-02-28T13:29:50;4.88;;;3.85;;
39276;SDS011;63149;48.086;-1.606;2023-02-28T13:32:20;6.68;;;3.25;;
39276;SDS011;63149;48.086;-1.606;2023-02-28T13:38:15;4.72;;;3.75;;
39276;SDS011;63149;48.086;-1.606;2023-02-28T13:44:01;4.72;;;3.30;;
39276;SDS011;63149;48.086;-1.606;2023-02-28T13:46:30;6.23;;;3.90;;
39276;SDS011;63149;48.086;-1.606;2023-02-28T13:51:46;4.72;;;3.15;;
39276;SDS011;63149;48.086;-1.606;2023-02-28T13:57:12;6.07;;;3.60;;
39276;SDS011;63149;48.086;-1.606;2023-02-28T13:59:52;6.10;;;4.03;;
39276;SDS011;63149;48.086;-1.606;2023-02-28T14:02:42;6.30;;;3.97;;
39276;SDS011;63149;48.086;-1.606;2023-02-28T14:05:29;6.65;;;3.92;;
39276;SDS011;63149;48.086;-1.606;2023-02-28T14:07:59;7.38;;;3.60;;
39276;SDS011;63149;48.086;-1.606;2023-02-28T14:10:33;7.03;;;4.47;;
39276;SDS011;63149;48.086;-1.606;2023-02-28T14:13:11;5.10;;;3.55;;
39276;SDS011;63149;48.086;-1.606;2023-02-28T14:15:58;5.68;;;3.85;;
39276;SDS011;63149;48.086;-1.606;2023-02-28T14:18:28;4.85;;;3.78;;
39276;SDS011;63149;48.086;-1.606;2023-02-28T14:20:58;4.93;;;3.47;;
39276;SDS011;63149;48.086;-1.606;2023-02-28T14:26:33;6.25;;;3.50;;
39276;SDS011;63149;48.086;-1.606;2023-02-28T14:29:26;6.20;;;3.58;;
39276;SDS011;63149;48.086;-1.606;2023-02-28T14:32:05;5.80;;;3.70;;
39276;SDS011;63149;48.086;-1.606;2023-02-28T14:34:41;5.40;;;3.63;;
39276;SDS011;63149;48.086;-1.606;2023-02-28T14:37:15;7.18;;;3.85;;
39276;SDS011;63149;48.086;-1.606;2023-02-28T14:42:27;4.35;;;3.67;;
39276;SDS011;63149;48.086;-1.606;2023-02-28T14:44:56;6.97;;;4.60;;
39276;SDS011;63149;48.086;-1.606;2023-02-28T14:47:25;5.47;;;4.00;;
39276;SDS011;63149;48.086;-1.606;2023-02-28T14:49:56;8.68;;;3.97;;
39276;SDS011;63149;48.086;-1.606;2023-02-28T14:52:25;7.35;;;4.75;;
39276;SDS011;63149;48.086;-1.606;2023-02-28T14:54:55;6.65;;;4.70;;
39276;SDS011;63149;48.086;-1.606;2023-02-28T14:57:25;7.22;;;4.20;;
39276;SDS011;63149;48.086;-1.606;2023-02-28T14:59:57;7.20;;;4.40;;
39276;SDS011;63149;48.086;-1.606;2023-02-28T15:02:29;8.80;;;4.78;;
39276;SDS011;63149;48.086;-1.606;2023-02-28T15:04:59;8.73;;;4.93;;
39276;SDS011;63149;48.086;-1.606;2023-02-28T15:07:27;6.55;;;4.82;;
39276;SDS011;63149;48.086;-1.606;2023-02-28T15:12:53;6.50;;;4.90;;
39276;SDS011;63149;48.086;-1.606;2023-02-28T15:15:23;7.07;;;3.67;;
39276;SDS011;63149;48.086;-1.606;2023-02-28T15:17:57;9.30;;;6.28;;
39276;SDS011;63149;48.086;-1.606;2023-02-28T15:20:26;7.78;;;4.15;;
39276;SDS011;63149;48.086;-1.606;2023-02-28T15:22:54;11.05;;;5.60;;
39276;SDS011;63149;48.086;-1.606;2023-02-28T15:25:22;9.48;;;6.10;;
39276;SDS011;63149;48.086;-1.606;2023-02-28T15:27:50;10.50;;;7.00;;
39276;SDS011;63149;48.086;-1.606;2023-02-28T15:30:19;8.45;;;6.93;;
39276;SDS011;63149;48.086;-1.606;2023-02-28T15:33:03;12.38;;;7.95;;
39276;SDS011;63149;48.086;-1.606;2023-02-28T15:35:33;9.77;;;7.45;;
39276;SDS011;63149;48.086;-1.606;2023-02-28T15:38:01;11.48;;;7.72;;
39276;SDS011;63149;48.086;-1.606;2023-02-28T15:40:31;11.98;;;8.45;;
39276;SDS011;63149;48.086;-1.606;2023-02-28T15:45:33;11.27;;;7.25;;
39276;SDS011;63149;48.086;-1.606;2023-02-28T15:50:32;9.75;;;7.43;;
39276;SDS011;63149;48.086;-1.606;2023-02-28T15:52:59;9.93;;;7.78;;
39276;SDS011;63149;48.086;-1.606;2023-02-28T15:55:28;14.10;;;8.48;;
39276;SDS011;63149;48.086;-1.606;2023-02-28T15:57:56;12.32;;;8.48;;
39276;SDS011;63149;48.086;-1.606;2023-02-28T16:00:27;12.90;;;9.30;;
39276;SDS011;63149;48.086;-1.606;2023-02-28T16:02:58;15.10;;;9.97;;
39276;SDS011;63149;48.086;-1.606;2023-02-28T16:05:26;17.35;;;10.30;;
39276;SDS011;63149;48.086;-1.606;2023-02-28T16:07:57;18.75;;;12.32;;
39276;SDS011;63149;48.086;-1.606;2023-02-28T16:10:25;19.23;;;12.27;;
39276;SDS011;63149;48.086;-1.606;2023-02-28T16:12:53;16.08;;;10.90;;
39276;SDS011;63149;48.086;-1.606;2023-02-28T16:15:22;18.58;;;10.88;;
39276;SDS011;63149;48.086;-1.606;2023-02-28T16:17:52;14.38;;;11.07;;
39276;SDS011;63149;48.086;-1.606;2023-02-28T16:20:20;17.38;;;11.65;;
39276;SDS011;63149;48.086;-1.606;2023-02-28T16:22:51;14.30;;;8.97;;
39276;SDS011;63149;48.086;-1.606;2023-02-28T16:25:19;16.85;;;11.43;;
39276;SDS011;63149;48.086;-1.606;2023-02-28T16:27:49;16.70;;;11.48;;
39276;SDS011;63149;48.086;-1.606;2023-02-28T16:30:19;14.70;;;8.63;;
39276;SDS011;63149;48.086;-1.606;2023-02-28T16:32:47;19.80;;;10.88;;
39276;SDS011;63149;48.086;-1.606;2023-02-28T16:35:15;15.25;;;10.30;;
39276;SDS011;63149;48.086;-1.606;2023-02-28T16:37:43;19.17;;;12.13;;
39276;SDS011;63149;48.086;-1.606;2023-02-28T16:40:14;17.60;;;12.02;;
39276;SDS011;63149;48.086;-1.606;2023-02-28T16:42:43;17.55;;;11.95;;
39276;SDS011;63149;48.086;-1.606;2023-02-28T16:45:15;18.88;;;12.40;;
39276;SDS011;63149;48.086;-1.606;2023-02-28T16:47:44;18.10;;;12.60;;
39276;SDS011;63149;48.086;-1.606;2023-02-28T16:50:15;17.35;;;11.20;;
39276;SDS011;63149;48.086;-1.606;2023-02-28T16:52:43;18.08;;;12.30;;
39276;SDS011;63149;48.086;-1.606;2023-02-28T16:55:10;22.33;;;12.23;;
39276;SDS011;63149;48.086;-1.606;2023-02-28T16:57:38;16.63;;;12.30;;
39276;SDS011;63149;48.086;-1.606;2023-02-28T17:00:06;18.67;;;12.65;;
39276;SDS011;63149;48.086;-1.606;2023-02-28T17:02:37;20.42;;;13.50;;
39276;SDS011;63149;48.086;-1.606;2023-02-28T17:05:04;20.13;;;14.13;;
39276;SDS011;63149;48.086;-1.606;2023-02-28T17:07:32;18.63;;;13.95;;
39276;SDS011;63149;48.086;-1.606;2023-02-28T17:09:59;22.00;;;14.30;;
39276;SDS011;63149;48.086;-1.606;2023-02-28T17:12:33;25.55;;;15.45;;
39276;SDS011;63149;48.086;-1.606;2023-02-28T17:15:02;23.50;;;16.05;;
39276;SDS011;63149;48.086;-1.606;2023-02-28T17:17:29;23.40;;;16.15;;
39276;SDS011;63149;48.086;-1.606;2023-02-28T17:19:57;31.50;;;18.75;;
39276;SDS011;63149;48.086;-1.606;2023-02-28T17:22:24;27.77;;;17.63;;
39276;SDS011;63149;48.086;-1.606;2023-02-28T17:24:51;27.73;;;16.98;;
39276;SDS011;63149;48.086;-1.606;2023-02-28T17:27:20;28.50;;;17.52;;
39276;SDS011;63149;48.086;-1.606;2023-02-28T17:29:47;26.15;;;16.45;;
39276;SDS011;63149;48.086;-1.606;2023-02-28T17:32:16;29.92;;;17.35;;
39276;SDS011;63149;48.086;-1.606;2023-02-28T17:34:43;29.23;;;18.63;;
39276;SDS011;63149;48.086;-1.606;2023-02-28T17:37:10;31.63;;;20.05;;
39276;SDS011;63149;48.086;-1.606;2023-02-28T17:39:37;32.55;;;19.13;;
39276;SDS011;63149;48.086;-1.606;2023-02-28T17:42:04;34.17;;;19.38;;
39276;SDS011;63149;48.086;-1.606;2023-02-28T17:44:31;32.97;;;18.75;;
39276;SDS011;63149;48.086;-1.606;2023-02-28T17:46:58;28.23;;;18.33;;
39276;SDS011;63149;48.086;-1.606;2023-02-28T17:49:27;28.85;;;18.55;;
39276;SDS011;63149;48.086;-1.606;2023-02-28T17:51:54;29.33;;;18.48;;
39276;SDS011;63149;48.086;-1.606;2023-02-28T17:54:21;38.30;;;21.17;;
39276;SDS011;63149;48.086;-1.606;2023-02-28T17:56:48;33.17;;;20.73;;
39276;SDS011;63149;48.086;-1.606;2023-02-28T17:59:14;35.80;;;20.98;;
39276;SDS011;63149;48.086;-1.606;2023-02-28T18:01:41;28.85;;;18.65;;
39276;SDS011;63149;48.086;-1.606;2023-02-28T18:04:08;34.95;;;21.02;;
39276;SDS011;63149;48.086;-1.606;2023-02-28T18:06:37;31.55;;;18.08;;
39276;SDS011;63149;48.086;-1.606;2023-02-28T18:09:11;29.80;;;18.13;;
39276;SDS011;63149;48.086;-1.606;2023-02-28T18:11:38;28.63;;;18.45;;
39276;SDS011;63149;48.086;-1.606;2023-02-28T18:14:08;21.27;;;14.60;;
39276;SDS011;63149;48.086;-1.606;2023-02-28T18:16:35;29.15;;;17.38;;
39276;SDS011;63149;48.086;-1.606;2023-02-28T18:19:03;30.65;;;18.55;;
39276;SDS011;63149;48.086;-1.606;2023-02-28T18:21:31;31.40;;;19.05;;
39276;SDS011;63149;48.086;-1.606;2023-02-28T18:23:59;30.45;;;19.10;;
39276;SDS011;63149;48.086;-1.606;2023-02-28T18:26:26;31.48;;;18.35;;
39276;SDS011;63149;48.086;-1.606;2023-02-28T18:28:53;31.02;;;19.17;;
39276;SDS011;63149;48.086;-1.606;2023-02-28T18:31:20;30.30;;;19.05;;
39276;SDS011;63149;48.086;-1.606;2023-02-28T18:33:48;32.55;;;18.88;;
39276;SDS011;63149;48.086;-1.606;2023-02-28T18:36:15;29.63;;;18.60;;
39276;SDS011;63149;48.086;-1.606;2023-02-28T18:38:43;34.08;;;20.15;;
39276;SDS011;63149;48.086;-1.606;2023-02-28T18:41:11;29.02;;;19.08;;
39276;SDS011;63149;48.086;-1.606;2023-02-28T18:43:39;36.83;;;22.70;;
39276;SDS011;63149;48.086;-1.606;2023-02-28T18:46:07;37.03;;;22.92;;
39276;SDS011;63149;48.086;-1.606;2023-02-28T18:48:35;38.67;;;22.10;;
39276;SDS011;63149;48.086;-1.606;2023-02-28T18:51:06;38.03;;;22.52;;
39276;SDS011;63149;48.086;-1.606;2023-02-28T18:53:34;35.80;;;21.33;;
39276;SDS011;63149;48.086;-1.606;2023-02-28T18:56:00;39.40;;;21.35;;
39276;SDS011;63149;48.086;-1.606;2023-02-28T18:58:29;37.72;;;21.90;;
39276;SDS011;63149;48.086;-1.606;2023-02-28T19:00:57;39.25;;;22.63;;
39276;SDS011;63149;48.086;-1.606;2023-02-28T19:03:24;44.50;;;22.75;;
39276;SDS011;63149;48.086;-1.606;2023-02-28T19:05:53;35.58;;;22.13;;
39276;SDS011;63149;48.086;-1.606;2023-02-28T19:08:21;35.55;;;21.52;;
39276;SDS011;63149;48.086;-1.606;2023-02-28T19:10:48;34.50;;;20.95;;
39276;SDS011;63149;48.086;-1.606;2023-02-28T19:13:15;35.05;;;20.77;;
39276;SDS011;63149;48.086;-1.606;2023-02-28T19:15:43;36.90;;;21.65;;
39276;SDS011;63149;48.086;-1.606;2023-02-28T19:18:10;28.02;;;16.95;;
39276;SDS011;63149;48.086;-1.606;2023-02-28T19:20:37;24.27;;;15.38;;
39276;SDS011;63149;48.086;-1.606;2023-02-28T19:23:04;27.17;;;15.88;;
39276;SDS011;63149;48.086;-1.606;2023-02-28T19:25:31;28.45;;;15.85;;
39276;SDS011;63149;48.086;-1.606;2023-02-28T19:27:58;21.98;;;13.75;;
39276;SDS011;63149;48.086;-1.606;2023-02-28T19:30:25;22.30;;;13.27;;
39276;SDS011;63149;48.086;-1.606;2023-02-28T19:32:53;21.77;;;13.07;;
39276;SDS011;63149;48.086;-1.606;2023-02-28T19:35:20;24.40;;;13.50;;
39276;SDS011;63149;48.086;-1.606;2023-02-28T19:37:47;18.23;;;12.20;;
39276;SDS011;63149;48.086;-1.606;2023-02-28T19:40:14;20.67;;;11.52;;
39276;SDS011;63149;48.086;-1.606;2023-02-28T19:42:41;19.70;;;11.60;;
39276;SDS011;63149;48.086;-1.606;2023-02-28T19:45:09;21.92;;;12.65;;
39276;SDS011;63149;48.086;-1.606;2023-02-28T19:47:38;17.88;;;11.88;;
39276;SDS011;63149;48.086;-1.606;2023-02-28T19:50:07;21.20;;;12.40;;
39276;SDS011;63149;48.086;-1.606;2023-02-28T19:52:36;19.23;;;11.27;;
39276;SDS011;63149;48.086;-1.606;2023-02-28T19:55:03;18.38;;;11.98;;
39276;SDS011;63149;48.086;-1.606;2023-02-28T19:57:31;20.48;;;11.82;;
39276;SDS011;63149;48.086;-1.606;2023-02-28T19:59:58;20.80;;;12.35;;
39276;SDS011;63149;48.086;-1.606;2023-02-28T20:02:25;18.20;;;11.43;;
39276;SDS011;63149;48.086;-1.606;2023-02-28T20:04:52;20.35;;;11.45;;
39276;SDS011;63149;48.086;-1.606;2023-02-28T20:07:22;16.52;;;9.75;;
39276;SDS011;63149;48.086;-1.606;2023-02-28T20:09:49;18.80;;;10.57;;
39276;SDS011;63149;48.086;-1.606;2023-02-28T20:12:16;22.52;;;12.25;;
39276;SDS011;63149;48.086;-1.606;2023-02-28T20:14:46;22.83;;;10.63;;
39276;SDS011;63149;48.086;-1.606;2023-02-28T20:17:14;17.38;;;10.15;;
39276;SDS011;63149;48.086;-1.606;2023-02-28T20:19:41;15.90;;;10.07;;
39276;SDS011;63149;48.086;-1.606;2023-02-28T20:22:07;16.77;;;10.52;;
39276;SDS011;63149;48.086;-1.606;2023-02-28T20:24:36;16.75;;;9.77;;
39276;SDS011;63149;48.086;-1.606;2023-02-28T20:27:03;16.88;;;10.52;;
39276;SDS011;63149;48.086;-1.606;2023-02-28T20:29:30;16.73;;;10.40;;
39276;SDS011;63149;48.086;-1.606;2023-02-28T20:31:58;15.18;;;9.82;;
39276;SDS011;63149;48.086;-1.606;2023-02-28T20:34:25;16.90;;;10.25;;
39276;SDS011;63149;48.086;-1.606;2023-02-28T20:36:52;16.73;;;8.95;;
39276;SDS011;63149;48.086;-1.606;2023-02-28T20:39:20;17.90;;;10.02;;
39276;SDS011;63149;48.086;-1.606;2023-02-28T20:41:49;17.65;;;10.18;;
39276;SDS011;63149;48.086;-1.606;2023-02-28T20:44:16;18.27;;;9.52;;
39276;SDS011;63149;48.086;-1.606;2023-02-28T20:46:44;17.52;;;10.13;;
39276;SDS011;63149;48.086;-1.606;2023-02-28T20:49:11;16.73;;;9.90;;
39276;SDS011;63149;48.086;-1.606;2023-02-28T20:51:39;15.93;;;10.02;;
39276;SDS011;63149;48.086;-1.606;2023-02-28T20:54:06;16.88;;;10.57;;
39276;SDS011;63149;48.086;-1.606;2023-02-28T20:56:35;14.80;;;9.00;;
39276;SDS011;63149;48.086;-1.606;2023-02-28T20:59:03;14.52;;;9.00;;
39276;SDS011;63149;48.086;-1.606;2023-02-28T21:01:31;16.90;;;10.77;;
39276;SDS011;63149;48.086;-1.606;2023-02-28T21:03:58;16.48;;;10.18;;
39276;SDS011;63149;48.086;-1.606;2023-02-28T21:06:27;17.45;;;10.63;;
39276;SDS011;63149;48.086;-1.606;2023-02-28T21:08:56;19.83;;;10.98;;
39276;SDS011;63149;48.086;-1.606;2023-02-28T21:11:24;18.60;;;11.05;;
39276;SDS011;63149;48.086;-1.606;2023-02-28T21:13:53;18.70;;;12.05;;